Annapolis, CA (95412)

10:02 AM PST on February 14, 2016 (GMT -0800)
The Sea Ranch, Unit 3 | | Change Station
CLOSE
Current Station
Personal Weather Station
Location: Sea Ranch, CA
Elevation: 118 ft
Nearby Weather Stations

Elev 118 ft 38.69 °N, 123.43 °W | Updated 16 seconds ago

Partly Cloudy
Partly Cloudy
59.4 °F
Feels Like 59.4 °F
N
0.0
Wind Variable Wind from SW
Gusts 0.0 mph

Today
High -- | Low -- °F
--% Chance of Precip.
Yesterday
High -- | Low -- °F
Precip. -- in
Pressure 30.29 in
Visibility 10.0 miles
Clouds Clear
Dew Point 51 °F
Humidity 73%
Rainfall 0.00 in
Snow Depth Not available.
7:05 AM 5:49 PM
Waxing Crescent, 44% visible
METAR KSTS 141753Z 35014G20KT 10SM CLR 18/10 A3030 RMK AO2 PK WND 34026/1725 SLP255 T01830100 10183 20111 50008
Pressure 30.29 in
Visibility 10.0 miles
Clouds Clear
Dew Point 51 °F
Humidity 73%
Rainfall 0.00 in
Snow Depth Not available.
7:05 AM 5:49 PM
Waxing Crescent, 44% visible
METAR KSTS 141753Z 35014G20KT 10SM CLR 18/10 A3030 RMK AO2 PK WND 34026/1725 SLP255 T01830100 10183 20111 50008

10-Day Weather Forecast

Almanac

Astronomy

Feb. 14, 2016 Rise Set
Actual Time
Civil Twilight
Nautical Twilight
Astronomical Twilight
Moon
Length of Visible Light
Length of Day
Tomorrow will be .
, % of the Moon is Illuminated

Today's Extremes

State Highs State Lows

Community

WunderPhotos

Upload Photos

1,892,866 photos uploaded!

WunderBlog® & News

Nearby

Air Quality

  Air Quality AQ Index Pollutant
Not available.

Snow Depth

Station Depth Elevation

Earthquake Activity

City Distance Mag. Time & Date
Minimum magnitude displayed is 2.5.

Coastal Water Temperatures

Place Temperature

Stations

Nearby Weather Stations

Station Location Temp. Windchill Dew Point Humidity Wind Precip. Elev Updated Type
                   

Watches & Warnings

There are currently no watches in effect.